| time (UTC) | temp C | wind direction | speed KPH | gust KPH | rain 1hr cm | rain 24hr cm | rain mn cm | humidity % | barometer mb |
| 20260505190057 | 13 | 315 | 4.8 | 22.5 | 0.00 | 0.00 | 0.00 | 40 | 1009.6 |
| 20260505183017 | 13 | 315 | 4.8 | 14.5 | 0.00 | 0.00 | 0.00 | 36 | 1009.3 |
| 20260505180017 | 12 | 315 | 4.8 | 16.1 | 0.00 | 0.00 | 0.00 | 39 | 1009.4 |
| 20260505173017 | 12 | 338 | 3.2 | 14.5 | 0.00 | 0.00 | 0.00 | 39 | 1009.2 |
| 20260505170016 | 12 | 315 | 3.2 | 14.5 | 0.00 | 0.00 | 0.00 | 39 | 1009.1 |
| 20260505163017 | 12 | 338 | 4.8 | 22.5 | 0.00 | 0.00 | 0.00 | 38 | 1008.9 |
| 20260505153016 | 11 | 315 | 3.2 | 16.1 | 0.00 | 0.00 | 0.00 | 39 | 1008.9 |
| 20260505123015 | 8 | 0.0 | 6.4 | 0.00 | 0.00 | 0.00 | 57 | 1009.3 | |
| 20260505120016 | 8 | 248 | 1.6 | 6.4 | 0.00 | 0.00 | 0.00 | 57 | 1009.5 |
| 20260505113056 | 8 | 203 | 1.6 | 6.4 | 0.00 | 0.00 | 0.00 | 60 | 1008.5 |
| 20260505100016 | 8 | 0 | 1.6 | 6.4 | 0.00 | 0.00 | 0.00 | 57 | 1007.2 |
| 20260505093055 | 9 | 45 | 1.6 | 6.4 | 0.00 | 0.00 | 0.00 | 56 | 1006.5 |
| 20260505090015 | 10 | 0 | 1.6 | 8.0 | 0.00 | 0.00 | 0.00 | 56 | 1007.0 |
| 20260505083016 | 10 | 0 | 3.2 | 6.4 | 0.00 | 0.00 | 0.00 | 52 | 1006.2 |
| 20260505080015 | 10 | 23 | 3.2 | 9.7 | 0.00 | 0.00 | 0.00 | 54 | 1004.9 |
| 20260505073018 | 11 | 0 | 3.2 | 9.7 | 0.00 | 0.00 | 0.00 | 56 | 1004.8 |
| 20260505070015 | 11 | 0.0 | 4.8 | 0.00 | 0.00 | 0.00 | 59 | 1003.9 | |
| 20260505063015 | 11 | 0.0 | 6.4 | 0.00 | 0.00 | 0.00 | 54 | 1004.0 | |
| 20260505060056 | 12 | 0.0 | 6.4 | 0.00 | 0.00 | 0.00 | 52 | 1003.5 | |
| 20260505053019 | 13 | 338 | 1.6 | 6.4 | 0.00 | 0.00 | 0.00 | 48 | 1003.1 |
| 20260505040017 | 16 | 338 | 1.6 | 8.0 | 0.00 | 0.00 | 0.00 | 42 | 1002.5 |
| 20260505033055 | 16 | 270 | 1.6 | 12.9 | 0.00 | 0.00 | 0.00 | 43 | 1002.1 |
| 20260505030016 | 17 | 0 | 1.6 | 4.8 | 0.00 | 0.00 | 0.00 | 42 | 1001.8 |
| 20260505023056 | 18 | 338 | 3.2 | 16.1 | 0.00 | 0.00 | 0.00 | 40 | 1001.2 |
| 20260505020015 | 19 | 315 | 3.2 | 12.9 | 0.00 | 0.00 | 0.00 | 39 | 1001.1 |
| 20260505013016 | 21 | 315 | 3.2 | 20.9 | 0.00 | 0.00 | 0.00 | 38 | 999.7 |
| 20260505010015 | 22 | 338 | 3.2 | 16.1 | 0.00 | 0.00 | 0.00 | 41 | 998.2 |
| 20260505003016 | 23 | 248 | 3.2 | 14.5 | 0.00 | 0.00 | 0.00 | 42 | 997.3 |
| 20260505000015 | 24 | 248 | 3.2 | 14.5 | 0.00 | 0.00 | 0.00 | 41 | 996.5 |
| 20260504233017 | 24 | 270 | 3.2 | 16.1 | 0.00 | 0.00 | 0.00 | 41 | 996.6 |
| 20260504230057 | 25 | 225 | 4.8 | 27.4 | 0.00 | 0.00 | 0.00 | 39 | 996.8 |
| 20260504220017 | 26 | 248 | 6.4 | 29.0 | 0.00 | 0.00 | 0.00 | 35 | 997.3 |
| 20260504213018 | 27 | 270 | 8.0 | 24.1 | 0.00 | 0.00 | 0.00 | 35 | 997.4 |
| 20260504210017 | 26 | 248 | 8.0 | 27.4 | 0.00 | 0.00 | 0.00 | 35 | 997.8 |
| 20260504203017 | 27 | 248 | 6.4 | 22.5 | 0.00 | 0.00 | 0.00 | 34 | 998.3 |
| 20260504200018 | 26 | 248 | 8.0 | 27.4 | 0.00 | 0.00 | 0.00 | 35 | 998.4 |
| 20260504193017 | 27 | 225 | 6.4 | 24.1 | 0.00 | 0.00 | 0.00 | 35 | 998.8 |